sensor_id;sensor_type;location;lat;lon;timestamp;pressure;altitude;pressure_sealevel;temperature;humidity
24013;BME280;12220;50.194;18.948;2022-07-03T00:01:47;102488.88;;;17.76;67.35
24013;BME280;12220;50.194;18.948;2022-07-03T00:03:48;102481.70;;;17.74;67.51
24013;BME280;12220;50.194;18.948;2022-07-03T00:05:59;102480.03;;;17.71;67.56
24013;BME280;12220;50.194;18.948;2022-07-03T00:08:02;102483.03;;;17.68;67.56
24013;BME280;12220;50.194;18.948;2022-07-03T00:10:05;102481.38;;;17.66;67.55
24013;BME280;12220;50.194;18.948;2022-07-03T00:12:07;102477.95;;;17.62;67.61
24013;BME280;12220;50.194;18.948;2022-07-03T00:14:14;102476.28;;;17.59;67.70
24013;BME280;12220;50.194;18.948;2022-07-03T00:16:15;102481.02;;;17.57;67.73
24013;BME280;12220;50.194;18.948;2022-07-03T00:18:17;102484.92;;;17.55;67.75
24013;BME280;12220;50.194;18.948;2022-07-03T00:20:19;102485.03;;;17.53;67.80
24013;BME280;12220;50.194;18.948;2022-07-03T00:22:30;102488.80;;;17.52;67.84
24013;BME280;12220;50.194;18.948;2022-07-03T00:24:58;102488.91;;;17.51;67.90
24013;BME280;12220;50.194;18.948;2022-07-03T00:26:51;102495.44;;;17.50;67.96
24013;BME280;12220;50.194;18.948;2022-07-03T00:28:55;102489.13;;;17.48;68.01
24013;BME280;12220;50.194;18.948;2022-07-03T00:30:57;102489.02;;;17.49;68.09
24013;BME280;12220;50.194;18.948;2022-07-03T00:33:02;102490.88;;;17.49;68.12
24013;BME280;12220;50.194;18.948;2022-07-03T00:35:08;102488.23;;;17.47;68.16
24013;BME280;12220;50.194;18.948;2022-07-03T00:37:10;102497.44;;;17.48;68.17
24013;BME280;12220;50.194;18.948;2022-07-03T00:39:12;102489.13;;;17.48;68.18
24013;BME280;12220;50.194;18.948;2022-07-03T00:43:27;102481.81;;;17.47;68.25
24013;BME280;12220;50.194;18.948;2022-07-03T00:45:33;102490.13;;;17.47;68.29
24013;BME280;12220;50.194;18.948;2022-07-03T00:47:36;102484.59;;;17.47;68.26
24013;BME280;12220;50.194;18.948;2022-07-03T00:49:38;102485.57;;;17.46;68.31
24013;BME280;12220;50.194;18.948;2022-07-03T00:51:40;102489.36;;;17.45;68.30
24013;BME280;12220;50.194;18.948;2022-07-03T00:53:42;102486.70;;;17.43;68.33
24013;BME280;12220;50.194;18.948;2022-07-03T00:55:48;102484.12;;;17.40;68.31
24013;BME280;12220;50.194;18.948;2022-07-03T00:57:50;102488.02;;;17.37;68.41
24013;BME280;12220;50.194;18.948;2022-07-03T00:59:52;102477.13;;;17.34;68.50
24013;BME280;12220;50.194;18.948;2022-07-03T01:02:01;102481.91;;;17.32;68.54
24013;BME280;12220;50.194;18.948;2022-07-03T01:06:24;102475.61;;;17.30;68.66
24013;BME280;12220;50.194;18.948;2022-07-03T01:08:35;102472.95;;;17.29;68.59
24013;BME280;12220;50.194;18.948;2022-07-03T01:10:54;102473.14;;;17.25;68.64
24013;BME280;12220;50.194;18.948;2022-07-03T01:15:11;102474.27;;;17.23;68.79
24013;BME280;12220;50.194;18.948;2022-07-03T01:17:25;102466.95;;;17.22;68.83
24013;BME280;12220;50.194;18.948;2022-07-03T01:26:34;102455.99;;;17.20;68.89
24013;BME280;12220;50.194;18.948;2022-07-03T01:28:39;102468.96;;;17.20;68.88
24013;BME280;12220;50.194;18.948;2022-07-03T01:30:48;102464.41;;;17.19;68.94
24013;BME280;12220;50.194;18.948;2022-07-03T01:35:07;102457.09;;;17.18;69.08
24013;BME280;12220;50.194;18.948;2022-07-03T01:37:14;102460.84;;;17.17;69.14
24013;BME280;12220;50.194;18.948;2022-07-03T01:39:17;102456.31;;;17.16;69.20
24013;BME280;12220;50.194;18.948;2022-07-03T01:41:18;102458.40;;;17.12;69.27
24013;BME280;12220;50.194;18.948;2022-07-03T01:43:25;102453.88;;;17.11;69.39
24013;BME280;12220;50.194;18.948;2022-07-03T01:45:31;102443.80;;;17.10;69.42
24013;BME280;12220;50.194;18.948;2022-07-03T01:47:34;102443.91;;;17.08;69.46
24013;BME280;12220;50.194;18.948;2022-07-03T01:49:36;102449.66;;;17.05;69.51
24013;BME280;12220;50.194;18.948;2022-07-03T01:51:39;102445.01;;;17.06;69.65
24013;BME280;12220;50.194;18.948;2022-07-03T01:53:47;102435.92;;;17.04;69.69
24013;BME280;12220;50.194;18.948;2022-07-03T01:55:50;102436.16;;;17.01;69.72
24013;BME280;12220;50.194;18.948;2022-07-03T01:57:52;102211.82;;;15.72;69.66
24013;BME280;12220;50.194;18.948;2022-07-03T01:59:54;102432.70;;;16.97;69.87
24013;BME280;12220;50.194;18.948;2022-07-03T02:02:22;102432.81;;;16.96;69.92
24013;BME280;12220;50.194;18.948;2022-07-03T02:06:43;102439.44;;;16.93;70.02
24013;BME280;12220;50.194;18.948;2022-07-03T02:15:31;102436.31;;;16.85;70.31
24013;BME280;12220;50.194;18.948;2022-07-03T02:17:38;102441.84;;;16.85;70.38
24013;BME280;12220;50.194;18.948;2022-07-03T02:19:54;102439.27;;;16.82;70.42
24013;BME280;12220;50.194;18.948;2022-07-03T02:22:07;102431.18;;;16.79;70.49
24013;BME280;12220;50.194;18.948;2022-07-03T02:26:33;102442.69;;;16.72;70.68
24013;BME280;12220;50.194;18.948;2022-07-03T02:30:49;102438.46;;;16.67;71.03
24013;BME280;12220;50.194;18.948;2022-07-03T02:32:59;102440.36;;;16.66;71.14
24013;BME280;12220;50.194;18.948;2022-07-03T02:35:21;102445.88;;;16.66;71.21
24013;BME280;12220;50.194;18.948;2022-07-03T02:37:23;102436.67;;;16.66;71.28
24013;BME280;12220;50.194;18.948;2022-07-03T02:39:38;102430.27;;;16.65;71.41
24013;BME280;12220;50.194;18.948;2022-07-03T02:41:46;102432.05;;;16.66;71.44
24013;BME280;12220;50.194;18.948;2022-07-03T02:43:58;102435.80;;;16.65;71.53
24013;BME280;12220;50.194;18.948;2022-07-03T02:46:06;102423.76;;;16.66;71.58
24013;BME280;12220;50.194;18.948;2022-07-03T02:48:27;102426.41;;;16.68;71.57
24013;BME280;12220;50.194;18.948;2022-07-03T02:50:40;102427.30;;;16.68;71.59
24013;BME280;12220;50.194;18.948;2022-07-03T02:52:50;102425.54;;;16.67;71.62
24013;BME280;12220;50.194;18.948;2022-07-03T02:54:55;102424.73;;;16.65;71.66
24013;BME280;12220;50.194;18.948;2022-07-03T02:57:06;102424.85;;;16.64;71.74
24013;BME280;12220;50.194;18.948;2022-07-03T02:59:19;102426.74;;;16.63;71.79
24013;BME280;12220;50.194;18.948;2022-07-03T03:01:28;102420.41;;;16.61;71.80
24013;BME280;12220;50.194;18.948;2022-07-03T03:03:47;102427.93;;;16.59;71.91
24013;BME280;12220;50.194;18.948;2022-07-03T03:06:12;102416.98;;;16.58;71.95
24013;BME280;12220;50.194;18.948;2022-07-03T03:10:45;102413.63;;;16.52;72.10
24013;BME280;12220;50.194;18.948;2022-07-03T03:15:03;102420.07;;;16.53;72.26
24013;BME280;12220;50.194;18.948;2022-07-03T03:17:06;102414.32;;;16.56;72.33
24013;BME280;12220;50.194;18.948;2022-07-03T03:19:08;102417.86;;;16.58;72.34
24013;BME280;12220;50.194;18.948;2022-07-03T03:21:16;102421.42;;;16.60;72.29
24013;BME280;12220;50.194;18.948;2022-07-03T03:23:30;102421.31;;;16.62;72.25
24013;BME280;12220;50.194;18.948;2022-07-03T03:25:33;102426.74;;;16.63;72.24
24013;BME280;12220;50.194;18.948;2022-07-03T03:27:37;102424.95;;;16.62;72.29
24013;BME280;12220;50.194;18.948;2022-07-03T03:29:44;102413.78;;;16.64;72.34
24013;BME280;12220;50.194;18.948;2022-07-03T03:31:45;102423.76;;;16.66;72.42
24013;BME280;12220;50.194;18.948;2022-07-03T03:33:49;102425.54;;;16.67;72.44
24013;BME280;12220;50.194;18.948;2022-07-03T03:35:50;102422.78;;;16.67;72.47
24013;BME280;12220;50.194;18.948;2022-07-03T03:37:59;102427.41;;;16.67;72.57
24013;BME280;12220;50.194;18.948;2022-07-03T03:40:02;102422.78;;;16.67;72.69
24013;BME280;12220;50.194;18.948;2022-07-03T03:42:04;102417.13;;;16.69;72.81
24013;BME280;12220;50.194;18.948;2022-07-03T03:44:05;102418.77;;;16.71;72.92
24013;BME280;12220;50.194;18.948;2022-07-03T03:46:13;102413.93;;;16.75;72.96
24013;BME280;12220;50.194;18.948;2022-07-03T03:48:18;102411.81;;;16.79;73.02
24013;BME280;12220;50.194;18.948;2022-07-03T03:50:19;102403.30;;;16.82;73.17
24013;BME280;12220;50.194;18.948;2022-07-03T03:52:21;102407.55;;;16.87;73.21
24013;BME280;12220;50.194;18.948;2022-07-03T03:54:28;102404.48;;;16.92;73.19
24013;BME280;12220;50.194;18.948;2022-07-03T03:56:30;102395.97;;;16.95;73.21
24013;BME280;12220;50.194;18.948;2022-07-03T03:58:34;102389.30;;;16.98;73.28
24013;BME280;12220;50.194;18.948;2022-07-03T04:00:35;102380.80;;;17.01;73.27
24013;BME280;12220;50.194;18.948;2022-07-03T04:02:43;102390.86;;;17.02;73.29
24013;BME280;12220;50.194;18.948;2022-07-03T04:04:45;102391.77;;;17.02;73.33
24013;BME280;12220;50.194;18.948;2022-07-03T04:06:46;102401.71;;;17.05;73.41
24013;BME280;12220;50.194;18.948;2022-07-03T04:08:47;102398.83;;;17.06;73.50
24013;BME280;12220;50.194;18.948;2022-07-03T04:10:58;102404.26;;;17.08;73.54
24013;BME280;12220;50.194;18.948;2022-07-03T04:13:00;102400.61;;;17.07;73.62
24013;BME280;12220;50.194;18.948;2022-07-03T04:15:01;102401.41;;;17.10;73.79
24013;BME280;12220;50.194;18.948;2022-07-03T04:17:03;102397.62;;;17.11;73.88
24013;BME280;12220;50.194;18.948;2022-07-03T04:19:13;102400.05;;;17.15;73.96
24013;BME280;12220;50.194;18.948;2022-07-03T04:21:14;102395.20;;;17.19;74.02
24013;BME280;12220;50.194;18.948;2022-07-03T04:23:15;102394.85;;;17.23;74.14
24013;BME280;12220;50.194;18.948;2022-07-03T04:25:17;102388.98;;;17.28;74.21
24013;BME280;12220;50.194;18.948;2022-07-03T04:27:28;102395.31;;;17.30;74.24
24013;BME280;12220;50.194;18.948;2022-07-03T04:29:31;102397.05;;;17.31;74.16
24013;BME280;12220;50.194;18.948;2022-07-03T04:31:32;102400.63;;;17.33;74.20
24013;BME280;12220;50.194;18.948;2022-07-03T04:33:33;102388.52;;;17.34;74.27
24013;BME280;12220;50.194;18.948;2022-07-03T04:35:43;102389.44;;;17.35;74.38
24013;BME280;12220;50.194;18.948;2022-07-03T04:37:44;102384.66;;;17.37;74.46
24013;BME280;12220;50.194;18.948;2022-07-03T04:39:45;102386.44;;;17.38;74.52
24013;BME280;12220;50.194;18.948;2022-07-03T04:41:47;102386.21;;;17.41;74.66
24013;BME280;12220;50.194;18.948;2022-07-03T04:43:58;102389.66;;;17.45;74.62
24013;BME280;12220;50.194;18.948;2022-07-03T04:45:59;102384.64;;;17.50;74.66
24013;BME280;12220;50.194;18.948;2022-07-03T04:48:00;102387.18;;;17.53;74.70
24013;BME280;12220;50.194;18.948;2022-07-03T04:50:02;102387.87;;;17.56;74.70
24013;BME280;12220;50.194;18.948;2022-07-03T04:52:12;102389.41;;;17.60;74.74
24013;BME280;12220;50.194;18.948;2022-07-03T04:54:14;102177.37;;;16.44;74.68
24013;BME280;12220;50.194;18.948;2022-07-03T04:56:15;102387.73;;;17.71;74.90
24013;BME280;12220;50.194;18.948;2022-07-03T04:58:17;102382.84;;;17.74;74.98
24013;BME280;12220;50.194;18.948;2022-07-03T05:00:28;102389.92;;;17.78;75.00
24013;BME280;12220;50.194;18.948;2022-07-03T05:02:29;102417.40;;;17.82;75.09
24013;BME280;12220;50.194;18.948;2022-07-03T05:04:30;102381.02;;;17.86;75.10
24013;BME280;12220;50.194;18.948;2022-07-03T05:06:32;102389.10;;;17.89;75.20
24013;BME280;12220;50.194;18.948;2022-07-03T05:08:42;102384.14;;;17.94;75.14
24013;BME280;12220;50.194;18.948;2022-07-03T05:10:43;102378.36;;;17.98;75.15
24013;BME280;12220;50.194;18.948;2022-07-03T05:12:44;102378.13;;;18.01;75.15
24013;BME280;12220;50.194;18.948;2022-07-03T05:14:46;102378.69;;;18.06;75.20
24013;BME280;12220;50.194;18.948;2022-07-03T05:16:57;102387.39;;;18.12;75.24
24013;BME280;12220;50.194;18.948;2022-07-03T05:18:59;102382.52;;;18.16;75.26
24013;BME280;12220;50.194;18.948;2022-07-03T05:21:01;102383.03;;;18.21;75.28
24013;BME280;12220;50.194;18.948;2022-07-03T05:23:03;102384.34;;;18.28;75.30
24013;BME280;12220;50.194;18.948;2022-07-03T05:25:12;102171.89;;;17.06;75.13
24013;BME280;12220;50.194;18.948;2022-07-03T05:27:13;102391.84;;;18.39;75.29
24013;BME280;12220;50.194;18.948;2022-07-03T05:29:14;102380.27;;;18.45;75.31
24013;BME280;12220;50.194;18.948;2022-07-03T05:31:16;102389.10;;;18.51;75.21
24013;BME280;12220;50.194;18.948;2022-07-03T05:33:27;102379.54;;;18.55;75.16
24013;BME280;12220;50.194;18.948;2022-07-03T05:35:28;102383.97;;;18.57;75.10
24013;BME280;12220;50.194;18.948;2022-07-03T05:37:30;102381.73;;;18.62;75.08
24013;BME280;12220;50.194;18.948;2022-07-03T05:39:31;102376.69;;;18.68;75.17
24013;BME280;12220;50.194;18.948;2022-07-03T05:41:42;102377.11;;;18.74;75.03
24013;BME280;12220;50.194;18.948;2022-07-03T05:43:43;102382.41;;;18.77;74.97
24013;BME280;12220;50.194;18.948;2022-07-03T05:45:44;102389.36;;;18.83;74.85
24013;BME280;12220;50.194;18.948;2022-07-03T05:47:45;102387.25;;;18.87;74.89
24013;BME280;12220;50.194;18.948;2022-07-03T05:49:57;102387.01;;;18.90;75.07
24013;BME280;12220;50.194;18.948;2022-07-03T05:51:58;102388.78;;;18.91;75.20
24013;BME280;12220;50.194;18.948;2022-07-03T05:53:59;102391.30;;;18.94;75.07
24013;BME280;12220;50.194;18.948;2022-07-03T05:56:00;102392.84;;;18.98;75.06
24013;BME280;12220;50.194;18.948;2022-07-03T05:58:11;102381.48;;;19.01;75.15
24013;BME280;12220;50.194;18.948;2022-07-03T06:00:13;102391.96;;;19.09;75.15
24013;BME280;12220;50.194;18.948;2022-07-03T06:02:15;102388.71;;;19.15;75.05
24013;BME280;12220;50.194;18.948;2022-07-03T06:04:16;102394.65;;;19.22;74.97
24013;BME280;12220;50.194;18.948;2022-07-03T06:06:26;102387.58;;;19.29;74.90
24013;BME280;12220;50.194;18.948;2022-07-03T06:08:28;102388.10;;;19.34;74.76
24013;BME280;12220;50.194;18.948;2022-07-03T06:10:29;102389.38;;;19.41;74.75
24013;BME280;12220;50.194;18.948;2022-07-03T06:12:30;102384.05;;;19.49;74.61
24013;BME280;12220;50.194;18.948;2022-07-03T06:14:41;102379.76;;;19.57;74.48
24013;BME280;12220;50.194;18.948;2022-07-03T06:16:42;102383.79;;;19.64;74.41
24013;BME280;12220;50.194;18.948;2022-07-03T06:18:43;102378.76;;;19.69;74.25
24013;BME280;12220;50.194;18.948;2022-07-03T06:20:45;102376.20;;;19.77;74.03
24013;BME280;12220;50.194;18.948;2022-07-03T06:22:56;102373.84;;;19.84;73.90
24013;BME280;12220;50.194;18.948;2022-07-03T06:24:57;102370.66;;;19.89;73.79
24013;BME280;12220;50.194;18.948;2022-07-03T06:26:58;102371.91;;;19.96;73.72
24013;BME280;12220;50.194;18.948;2022-07-03T06:29:00;102364.09;;;20.01;73.58
24013;BME280;12220;50.194;18.948;2022-07-03T06:31:11;102363.42;;;20.09;73.43
24013;BME280;12220;50.194;18.948;2022-07-03T06:33:12;102370.37;;;20.14;73.42
24013;BME280;12220;50.194;18.948;2022-07-03T06:35:13;102368.69;;;20.23;73.13
24013;BME280;12220;50.194;18.948;2022-07-03T06:37:15;102362.59;;;20.29;72.87
24013;BME280;12220;50.194;18.948;2022-07-03T06:39:26;102362.96;;;20.36;72.58
24013;BME280;12220;50.194;18.948;2022-07-03T06:41:27;102360.52;;;20.43;72.45
24013;BME280;12220;50.194;18.948;2022-07-03T06:43:28;102368.07;;;20.52;72.28
24013;BME280;12220;50.194;18.948;2022-07-03T06:45:29;102361.09;;;20.58;71.96
24013;BME280;12220;50.194;18.948;2022-07-03T06:47:40;102353.95;;;20.65;71.70
24013;BME280;12220;50.194;18.948;2022-07-03T06:49:42;102354.48;;;20.70;71.58
24013;BME280;12220;50.194;18.948;2022-07-03T06:51:44;102351.00;;;20.78;71.29
24013;BME280;12220;50.194;18.948;2022-07-03T06:53:45;102354.00;;;20.86;71.04
24013;BME280;12220;50.194;18.948;2022-07-03T06:55:55;102346.01;;;20.93;71.00
24013;BME280;12220;50.194;18.948;2022-07-03T06:57:56;102344.41;;;21.00;70.65
24013;BME280;12220;50.194;18.948;2022-07-03T06:59:58;102338.91;;;21.10;70.41
24013;BME280;12220;50.194;18.948;2022-07-03T07:01:59;102343.80;;;21.17;70.25
24013;BME280;12220;50.194;18.948;2022-07-03T07:04:10;102337.38;;;21.27;70.06
24013;BME280;12220;50.194;18.948;2022-07-03T07:06:12;102339.61;;;21.33;69.66
24013;BME280;12220;50.194;18.948;2022-07-03T07:08:13;102341.68;;;21.40;69.31
24013;BME280;12220;50.194;18.948;2022-07-03T07:10:14;102326.31;;;21.46;69.06
24013;BME280;12220;50.194;18.948;2022-07-03T07:12:25;102330.95;;;21.57;68.94
24013;BME280;12220;50.194;18.948;2022-07-03T07:14:26;102330.23;;;21.65;68.69
24013;BME280;12220;50.194;18.948;2022-07-03T07:16:27;102336.86;;;21.73;68.16
24013;BME280;12220;50.194;18.948;2022-07-03T07:18:30;102323.09;;;21.82;67.76
24013;BME280;12220;50.194;18.948;2022-07-03T07:20:40;102328.68;;;21.91;67.65
24013;BME280;12220;50.194;18.948;2022-07-03T07:22:41;102326.06;;;22.00;67.14
24013;BME280;12220;50.194;18.948;2022-07-03T07:24:42;102320.65;;;22.08;66.96
24013;BME280;12220;50.194;18.948;2022-07-03T07:26:44;102319.62;;;22.19;66.57
24013;BME280;12220;50.194;18.948;2022-07-03T07:28:55;102324.34;;;22.28;66.23
24013;BME280;12220;50.194;18.948;2022-07-03T07:30:56;102314.24;;;22.37;65.88
24013;BME280;12220;50.194;18.948;2022-07-03T07:32:58;102314.37;;;22.45;65.26
24013;BME280;12220;50.194;18.948;2022-07-03T07:34:59;102348.01;;;22.53;64.27
24013;BME280;12220;50.194;18.948;2022-07-03T07:37:09;102310.25;;;22.59;64.24
24013;BME280;12220;50.194;18.948;2022-07-03T07:39:11;102141.98;;;21.61;64.21
24013;BME280;12220;50.194;18.948;2022-07-03T07:41:12;102308.89;;;22.73;64.06
24013;BME280;12220;50.194;18.948;2022-07-03T07:43:13;102307.26;;;22.80;63.73
24013;BME280;12220;50.194;18.948;2022-07-03T07:45:24;102319.44;;;22.89;63.67
24013;BME280;12220;50.194;18.948;2022-07-03T07:47:25;102316.94;;;22.95;63.37
24013;BME280;12220;50.194;18.948;2022-07-03T07:49:27;102318.09;;;23.03;63.08
24013;BME280;12220;50.194;18.948;2022-07-03T07:51:28;102320.27;;;23.09;62.90
24013;BME280;12220;50.194;18.948;2022-07-03T07:53:39;102317.95;;;23.14;62.66
24013;BME280;12220;50.194;18.948;2022-07-03T07:55:40;102311.90;;;23.19;62.11
24013;BME280;12220;50.194;18.948;2022-07-03T07:57:42;102301.28;;;23.22;61.71
24013;BME280;12220;50.194;18.948;2022-07-03T07:59:43;102307.47;;;23.26;61.66
24013;BME280;12220;50.194;18.948;2022-07-03T08:01:54;102311.41;;;23.33;61.36
24013;BME280;12220;50.194;18.948;2022-07-03T08:04:15;102311.81;;;23.38;61.07
24013;BME280;12220;50.194;18.948;2022-07-03T08:06:37;102313.43;;;23.41;61.01
24013;BME280;12220;50.194;18.948;2022-07-03T08:08:38;102310.31;;;23.44;60.82
24013;BME280;12220;50.194;18.948;2022-07-03T08:10:45;102302.64;;;23.46;60.59
24013;BME280;12220;50.194;18.948;2022-07-03T08:12:56;102152.01;;;22.50;60.45
24013;BME280;12220;50.194;18.948;2022-07-03T08:14:57;102312.77;;;23.57;60.57
24013;BME280;12220;50.194;18.948;2022-07-03T08:16:58;102301.10;;;23.61;60.44
24013;BME280;12220;50.194;18.948;2022-07-03T08:19:01;102317.25;;;23.67;60.26
24013;BME280;12220;50.194;18.948;2022-07-03T08:21:02;102315.59;;;23.75;60.01
24013;BME280;12220;50.194;18.948;2022-07-03T08:23:09;102321.46;;;23.81;59.71
24013;BME280;12220;50.194;18.948;2022-07-03T08:25:10;102307.73;;;23.88;59.41
24013;BME280;12220;50.194;18.948;2022-07-03T08:27:14;102307.83;;;23.96;59.26
24013;BME280;12220;50.194;18.948;2022-07-03T08:29:16;102307.62;;;24.08;59.31
24013;BME280;12220;50.194;18.948;2022-07-03T08:31:21;102311.05;;;24.19;59.37
24013;BME280;12220;50.194;18.948;2022-07-03T08:33:22;102310.24;;;24.27;59.06
24013;BME280;12220;50.194;18.948;2022-07-03T08:35:24;102302.09;;;24.34;58.23
24013;BME280;12220;50.194;18.948;2022-07-03T08:37:26;102304.56;;;24.37;58.14
24013;BME280;12220;50.194;18.948;2022-07-03T08:39:39;102308.65;;;24.43;58.12
24013;BME280;12220;50.194;18.948;2022-07-03T08:41:40;102312.89;;;24.47;57.85
24013;BME280;12220;50.194;18.948;2022-07-03T08:43:46;102308.41;;;24.54;57.81
24013;BME280;12220;50.194;18.948;2022-07-03T08:45:48;102300.98;;;24.63;57.84
24013;BME280;12220;50.194;18.948;2022-07-03T08:47:56;102291.42;;;24.74;57.70
24013;BME280;12220;50.194;18.948;2022-07-03T08:49:58;102293.39;;;24.81;57.56
24013;BME280;12220;50.194;18.948;2022-07-03T08:52:02;102300.99;;;24.89;57.22
24013;BME280;12220;50.194;18.948;2022-07-03T08:54:04;102322.75;;;24.95;56.71
24013;BME280;12220;50.194;18.948;2022-07-03T08:56:07;102302.30;;;25.03;56.60
24013;BME280;12220;50.194;18.948;2022-07-03T08:58:11;102312.14;;;25.07;56.30
24013;BME280;12220;50.194;18.948;2022-07-03T09:00:16;102304.30;;;25.11;56.09
24013;BME280;12220;50.194;18.948;2022-07-03T09:02:18;102300.26;;;25.13;55.80
24013;BME280;12220;50.194;18.948;2022-07-03T09:04:21;102301.16;;;25.14;55.73
24013;BME280;12220;50.194;18.948;2022-07-03T09:06:23;102300.43;;;25.12;55.43
24013;BME280;12220;50.194;18.948;2022-07-03T09:08:26;102297.80;;;25.10;55.53
24013;BME280;12220;50.194;18.948;2022-07-03T09:10:30;102347.88;;;25.05;54.64
24013;BME280;12220;50.194;18.948;2022-07-03T09:12:36;102301.60;;;25.01;55.02
24013;BME280;12220;50.194;18.948;2022-07-03T09:14:37;102286.15;;;24.97;55.03
24013;BME280;12220;50.194;18.948;2022-07-03T09:16:38;102294.90;;;24.94;54.40
24013;BME280;12220;50.194;18.948;2022-07-03T09:18:43;102296.10;;;24.91;54.71
24013;BME280;12220;50.194;18.948;2022-07-03T09:21:01;102298.03;;;24.91;54.68
24013;BME280;12220;50.194;18.948;2022-07-03T09:23:18;102289.96;;;24.87;54.97
24013;BME280;12220;50.194;18.948;2022-07-03T09:25:33;102290.83;;;24.88;55.09
24013;BME280;12220;50.194;18.948;2022-07-03T09:27:39;102294.83;;;24.85;55.11
24013;BME280;12220;50.194;18.948;2022-07-03T09:31:58;102299.93;;;24.90;55.17
24013;BME280;12220;50.194;18.948;2022-07-03T09:34:05;102286.48;;;24.94;55.27
24013;BME280;12220;50.194;18.948;2022-07-03T09:36:13;102292.63;;;24.97;55.36
24013;BME280;12220;50.194;18.948;2022-07-03T09:38:15;102286.55;;;25.02;55.18
24013;BME280;12220;50.194;18.948;2022-07-03T09:40:17;102290.75;;;25.06;55.14
24013;BME280;12220;50.194;18.948;2022-07-03T09:42:19;102289.04;;;25.13;55.11
24013;BME280;12220;50.194;18.948;2022-07-03T09:44:40;102301.19;;;25.22;54.98
24013;BME280;12220;50.194;18.948;2022-07-03T09:49:07;102273.37;;;25.29;54.41
24013;BME280;12220;50.194;18.948;2022-07-03T09:51:15;102270.56;;;25.29;54.12
24013;BME280;12220;50.194;18.948;2022-07-03T09:53:17;102272.50;;;25.28;54.24
24013;BME280;12220;50.194;18.948;2022-07-03T09:55:19;102277.04;;;25.29;54.22
24013;BME280;12220;50.194;18.948;2022-07-03T09:57:23;102265.83;;;25.29;54.13
24013;BME280;12220;50.194;18.948;2022-07-03T09:59:27;102269.87;;;25.27;54.11
24013;BME280;12220;50.194;18.948;2022-07-03T10:01:28;102265.13;;;25.27;54.28
24013;BME280;12220;50.194;18.948;2022-07-03T10:03:30;102257.58;;;25.28;54.02
24013;BME280;12220;50.194;18.948;2022-07-03T10:05:39;102251.80;;;25.29;54.13
24013;BME280;12220;50.194;18.948;2022-07-03T10:07:49;102265.38;;;25.34;53.87
24013;BME280;12220;50.194;18.948;2022-07-03T10:09:51;102253.26;;;25.33;53.75
24013;BME280;12220;50.194;18.948;2022-07-03T10:11:53;102255.03;;;25.34;53.90
24013;BME280;12220;50.194;18.948;2022-07-03T10:13:56;102256.46;;;25.38;54.06
24013;BME280;12220;50.194;18.948;2022-07-03T10:15:57;102255.22;;;25.41;54.07
24013;BME280;12220;50.194;18.948;2022-07-03T10:18:00;102256.80;;;25.44;53.99
24013;BME280;12220;50.194;18.948;2022-07-03T10:20:02;102253.67;;;25.47;53.77
24013;BME280;12220;50.194;18.948;2022-07-03T10:22:19;102249.65;;;25.49;53.60
24013;BME280;12220;50.194;18.948;2022-07-03T10:24:32;102254.05;;;25.52;53.56
24013;BME280;12220;50.194;18.948;2022-07-03T10:26:33;102243.52;;;25.54;52.99
24013;BME280;12220;50.194;18.948;2022-07-03T10:28:36;102238.46;;;25.57;52.86
24013;BME280;12220;50.194;18.948;2022-07-03T10:30:38;102241.10;;;25.59;51.76
24013;BME280;12220;50.194;18.948;2022-07-03T10:32:49;102243.73;;;25.61;51.64
24013;BME280;12220;50.194;18.948;2022-07-03T10:34:52;102237.43;;;25.67;51.84
24013;BME280;12220;50.194;18.948;2022-07-03T10:36:59;102244.98;;;25.74;51.67
24013;BME280;12220;50.194;18.948;2022-07-03T10:39:15;102240.26;;;25.83;51.79
24013;BME280;12220;50.194;18.948;2022-07-03T10:41:36;102235.54;;;25.92;51.86
24013;BME280;12220;50.194;18.948;2022-07-03T10:43:52;102239.83;;;26.04;51.81
24013;BME280;12220;50.194;18.948;2022-07-03T10:46:13;102230.51;;;26.12;51.38
24013;BME280;12220;50.194;18.948;2022-07-03T10:48:18;102232.47;;;26.20;51.35
24013;BME280;12220;50.194;18.948;2022-07-03T10:50:33;102225.96;;;26.27;51.41
24013;BME280;12220;50.194;18.948;2022-07-03T10:52:57;102220.87;;;26.39;50.96
24013;BME280;12220;50.194;18.948;2022-07-03T10:55:11;102224.19;;;26.51;50.75
24013;BME280;12220;50.194;18.948;2022-07-03T10:57:20;102223.65;;;26.64;50.42
24013;BME280;12220;50.194;18.948;2022-07-03T11:01:50;102216.42;;;26.86;48.95
24013;BME280;12220;50.194;18.948;2022-07-03T11:03:59;102209.57;;;26.89;47.53
24013;BME280;12220;50.194;18.948;2022-07-03T11:06:00;102211.48;;;26.96;48.68
24013;BME280;12220;50.194;18.948;2022-07-03T11:08:05;102218.30;;;27.02;49.00
24013;BME280;12220;50.194;18.948;2022-07-03T11:12:52;102221.27;;;27.09;49.03
24013;BME280;12220;50.194;18.948;2022-07-03T11:14:32;102221.27;;;27.09;48.75
24013;BME280;12220;50.194;18.948;2022-07-03T11:16:34;102203.88;;;27.05;48.54
24013;BME280;12220;50.194;18.948;2022-07-03T11:18:35;102206.38;;;27.00;48.85
24013;BME280;12220;50.194;18.948;2022-07-03T11:22:53;102220.38;;;27.08;48.64
24013;BME280;12220;50.194;18.948;2022-07-03T11:24:58;102215.29;;;27.12;47.91
24013;BME280;12220;50.194;18.948;2022-07-03T11:27:18;102203.34;;;27.10;47.63
24013;BME280;12220;50.194;18.948;2022-07-03T11:29:30;102197.59;;;27.03;47.44
24013;BME280;12220;50.194;18.948;2022-07-03T11:31:33;102193.01;;;27.02;47.39
24013;BME280;12220;50.194;18.948;2022-07-03T11:35:53;102189.09;;;27.11;47.27